sensor_id;sensor_type;location;lat;lon;timestamp;P1;durP1;ratioP1;P2;durP2;ratioP2
75465;SDS011;64049;46.290;44.240;2023-07-13T00:00:41;6.20;;;3.38;;
75465;SDS011;64049;46.290;44.240;2023-07-13T00:03:08;7.35;;;3.78;;
75465;SDS011;64049;46.290;44.240;2023-07-13T00:05:34;9.88;;;4.25;;
75465;SDS011;64049;46.290;44.240;2023-07-13T00:08:00;8.02;;;3.97;;
75465;SDS011;64049;46.290;44.240;2023-07-13T00:10:26;7.60;;;3.63;;
75465;SDS011;64049;46.290;44.240;2023-07-13T00:12:52;8.23;;;3.85;;
75465;SDS011;64049;46.290;44.240;2023-07-13T00:15:21;7.78;;;3.22;;
75465;SDS011;64049;46.290;44.240;2023-07-13T00:17:49;6.38;;;3.70;;
75465;SDS011;64049;46.290;44.240;2023-07-13T00:20:23;7.32;;;3.95;;
75465;SDS011;64049;46.290;44.240;2023-07-13T00:22:50;12.48;;;4.55;;
75465;SDS011;64049;46.290;44.240;2023-07-13T00:25:21;9.35;;;4.30;;
75465;SDS011;64049;46.290;44.240;2023-07-13T00:27:49;7.90;;;4.45;;
75465;SDS011;64049;46.290;44.240;2023-07-13T00:30:16;7.65;;;4.65;;
75465;SDS011;64049;46.290;44.240;2023-07-13T00:32:42;5.78;;;3.42;;
75465;SDS011;64049;46.290;44.240;2023-07-13T00:35:08;8.93;;;4.50;;
75465;SDS011;64049;46.290;44.240;2023-07-13T00:37:34;7.63;;;4.22;;
75465;SDS011;64049;46.290;44.240;2023-07-13T00:40:02;7.63;;;3.65;;
75465;SDS011;64049;46.290;44.240;2023-07-13T00:42:32;9.48;;;3.97;;
75465;SDS011;64049;46.290;44.240;2023-07-13T00:45:05;10.13;;;3.88;;
75465;SDS011;64049;46.290;44.240;2023-07-13T00:47:33;5.90;;;2.90;;
75465;SDS011;64049;46.290;44.240;2023-07-13T00:49:59;8.75;;;3.78;;
75465;SDS011;64049;46.290;44.240;2023-07-13T00:52:25;7.53;;;3.17;;
75465;SDS011;64049;46.290;44.240;2023-07-13T00:57:19;6.65;;;3.65;;
75465;SDS011;64049;46.290;44.240;2023-07-13T00:59:49;8.43;;;3.97;;
75465;SDS011;64049;46.290;44.240;2023-07-13T01:02:19;7.43;;;3.95;;
75465;SDS011;64049;46.290;44.240;2023-07-13T01:04:47;5.95;;;3.63;;
75465;SDS011;64049;46.290;44.240;2023-07-13T01:07:13;6.90;;;3.83;;
75465;SDS011;64049;46.290;44.240;2023-07-13T01:09:39;9.48;;;4.07;;
75465;SDS011;64049;46.290;44.240;2023-07-13T01:12:05;5.93;;;3.70;;
75465;SDS011;64049;46.290;44.240;2023-07-13T01:14:31;7.85;;;4.32;;
75465;SDS011;64049;46.290;44.240;2023-07-13T01:16:57;7.60;;;4.00;;
75465;SDS011;64049;46.290;44.240;2023-07-13T01:22:02;12.48;;;7.35;;
75465;SDS011;64049;46.290;44.240;2023-07-13T01:24:37;11.75;;;6.55;;
75465;SDS011;64049;46.290;44.240;2023-07-13T01:27:05;15.65;;;9.10;;
75465;SDS011;64049;46.290;44.240;2023-07-13T01:29:34;17.77;;;9.63;;
75465;SDS011;64049;46.290;44.240;2023-07-13T01:32:08;18.65;;;9.00;;
75465;SDS011;64049;46.290;44.240;2023-07-13T01:34:35;16.52;;;10.18;;
75465;SDS011;64049;46.290;44.240;2023-07-13T01:37:03;16.95;;;8.73;;
75465;SDS011;64049;46.290;44.240;2023-07-13T01:39:30;13.95;;;8.23;;
75465;SDS011;64049;46.290;44.240;2023-07-13T01:41:57;15.20;;;8.35;;
75465;SDS011;64049;46.290;44.240;2023-07-13T01:44:22;13.60;;;7.82;;
75465;SDS011;64049;46.290;44.240;2023-07-13T01:46:48;13.05;;;8.38;;
75465;SDS011;64049;46.290;44.240;2023-07-13T01:49:14;13.07;;;8.43;;
75465;SDS011;64049;46.290;44.240;2023-07-13T01:51:40;13.80;;;8.07;;
75465;SDS011;64049;46.290;44.240;2023-07-13T01:54:06;12.93;;;8.13;;
75465;SDS011;64049;46.290;44.240;2023-07-13T01:56:32;15.25;;;7.68;;
75465;SDS011;64049;46.290;44.240;2023-07-13T01:58:58;14.95;;;8.77;;
75465;SDS011;64049;46.290;44.240;2023-07-13T02:01:24;14.25;;;8.18;;
75465;SDS011;64049;46.290;44.240;2023-07-13T02:04:05;11.93;;;7.38;;
75465;SDS011;64049;46.290;44.240;2023-07-13T02:06:33;15.90;;;8.98;;
75465;SDS011;64049;46.290;44.240;2023-07-13T02:08:59;14.27;;;7.70;;
75465;SDS011;64049;46.290;44.240;2023-07-13T02:11:25;13.50;;;8.65;;
75465;SDS011;64049;46.290;44.240;2023-07-13T02:13:58;13.60;;;7.97;;
75465;SDS011;64049;46.290;44.240;2023-07-13T02:16:26;11.13;;;7.53;;
75465;SDS011;64049;46.290;44.240;2023-07-13T02:18:51;12.27;;;7.85;;
75465;SDS011;64049;46.290;44.240;2023-07-13T02:21:17;13.68;;;8.90;;
75465;SDS011;64049;46.290;44.240;2023-07-13T02:23:43;13.20;;;8.80;;
75465;SDS011;64049;46.290;44.240;2023-07-13T02:26:09;13.45;;;8.43;;
75465;SDS011;64049;46.290;44.240;2023-07-13T02:28:35;12.93;;;7.70;;
75465;SDS011;64049;46.290;44.240;2023-07-13T02:31:05;12.38;;;7.38;;
75465;SDS011;64049;46.290;44.240;2023-07-13T02:33:32;11.25;;;7.35;;
75465;SDS011;64049;46.290;44.240;2023-07-13T02:35:58;9.60;;;6.90;;
75465;SDS011;64049;46.290;44.240;2023-07-13T02:38:24;11.15;;;7.38;;
75465;SDS011;64049;46.290;44.240;2023-07-13T02:40:50;11.30;;;7.25;;
75465;SDS011;64049;46.290;44.240;2023-07-13T02:43:18;11.60;;;8.52;;
75465;SDS011;64049;46.290;44.240;2023-07-13T02:45:46;11.80;;;7.13;;
75465;SDS011;64049;46.290;44.240;2023-07-13T02:48:13;11.48;;;6.68;;
75465;SDS011;64049;46.290;44.240;2023-07-13T02:50:40;10.25;;;5.75;;
75465;SDS011;64049;46.290;44.240;2023-07-13T02:53:05;11.57;;;7.03;;
75465;SDS011;64049;46.290;44.240;2023-07-13T02:55:31;12.10;;;6.88;;
75465;SDS011;64049;46.290;44.240;2023-07-13T02:57:58;11.50;;;6.40;;
75465;SDS011;64049;46.290;44.240;2023-07-13T03:00:24;12.18;;;6.95;;
75465;SDS011;64049;46.290;44.240;2023-07-13T03:02:50;11.48;;;6.43;;
75465;SDS011;64049;46.290;44.240;2023-07-13T03:05:16;10.25;;;5.63;;
75465;SDS011;64049;46.290;44.240;2023-07-13T03:07:42;8.95;;;5.53;;
75465;SDS011;64049;46.290;44.240;2023-07-13T03:10:10;9.35;;;5.72;;
75465;SDS011;64049;46.290;44.240;2023-07-13T03:12:42;9.50;;;5.68;;
75465;SDS011;64049;46.290;44.240;2023-07-13T03:15:16;10.27;;;5.80;;
75465;SDS011;64049;46.290;44.240;2023-07-13T03:17:44;8.35;;;5.03;;
75465;SDS011;64049;46.290;44.240;2023-07-13T03:20:10;14.15;;;4.57;;
75465;SDS011;64049;46.290;44.240;2023-07-13T03:22:37;5.13;;;3.08;;
75465;SDS011;64049;46.290;44.240;2023-07-13T03:25:04;9.50;;;4.20;;
75465;SDS011;64049;46.290;44.240;2023-07-13T03:27:30;8.68;;;4.57;;
75465;SDS011;64049;46.290;44.240;2023-07-13T03:29:57;9.50;;;3.95;;
75465;SDS011;64049;46.290;44.240;2023-07-13T03:32:23;6.93;;;3.20;;
75465;SDS011;64049;46.290;44.240;2023-07-13T03:34:48;6.38;;;2.85;;
75465;SDS011;64049;46.290;44.240;2023-07-13T03:37:14;6.47;;;3.33;;
75465;SDS011;64049;46.290;44.240;2023-07-13T03:39:41;6.70;;;3.63;;
75465;SDS011;64049;46.290;44.240;2023-07-13T03:42:07;6.55;;;3.05;;
75465;SDS011;64049;46.290;44.240;2023-07-13T03:44:35;5.75;;;3.60;;
75465;SDS011;64049;46.290;44.240;2023-07-13T03:47:02;6.30;;;3.45;;
75465;SDS011;64049;46.290;44.240;2023-07-13T03:49:31;8.70;;;4.13;;
75465;SDS011;64049;46.290;44.240;2023-07-13T03:52:00;8.43;;;4.53;;
75465;SDS011;64049;46.290;44.240;2023-07-13T03:54:26;7.32;;;3.90;;
75465;SDS011;64049;46.290;44.240;2023-07-13T03:56:52;8.60;;;4.85;;
75465;SDS011;64049;46.290;44.240;2023-07-13T03:59:20;8.93;;;4.82;;
75465;SDS011;64049;46.290;44.240;2023-07-13T04:01:46;7.85;;;4.38;;
75465;SDS011;64049;46.290;44.240;2023-07-13T04:04:12;8.40;;;4.10;;
75465;SDS011;64049;46.290;44.240;2023-07-13T04:06:38;8.68;;;4.68;;
75465;SDS011;64049;46.290;44.240;2023-07-13T04:09:03;7.72;;;4.72;;
75465;SDS011;64049;46.290;44.240;2023-07-13T04:11:34;8.95;;;5.78;;
75465;SDS011;64049;46.290;44.240;2023-07-13T04:16:27;10.00;;;4.70;;
75465;SDS011;64049;46.290;44.240;2023-07-13T04:18:54;8.18;;;4.60;;
75465;SDS011;64049;46.290;44.240;2023-07-13T04:21:25;11.02;;;4.68;;
75465;SDS011;64049;46.290;44.240;2023-07-13T04:23:52;6.88;;;2.88;;
75465;SDS011;64049;46.290;44.240;2023-07-13T04:26:18;7.50;;;3.90;;
75465;SDS011;64049;46.290;44.240;2023-07-13T04:28:47;7.32;;;4.15;;
75465;SDS011;64049;46.290;44.240;2023-07-13T04:31:13;7.78;;;4.15;;
75465;SDS011;64049;46.290;44.240;2023-07-13T04:33:39;7.32;;;4.22;;
75465;SDS011;64049;46.290;44.240;2023-07-13T04:36:05;7.70;;;4.13;;
75465;SDS011;64049;46.290;44.240;2023-07-13T04:38:35;6.18;;;3.53;;
75465;SDS011;64049;46.290;44.240;2023-07-13T04:41:02;5.18;;;2.60;;
75465;SDS011;64049;46.290;44.240;2023-07-13T04:43:31;5.88;;;2.65;;
75465;SDS011;64049;46.290;44.240;2023-07-13T04:46:02;5.40;;;3.25;;
75465;SDS011;64049;46.290;44.240;2023-07-13T04:48:29;6.75;;;3.15;;
75465;SDS011;64049;46.290;44.240;2023-07-13T04:50:56;7.07;;;3.17;;
75465;SDS011;64049;46.290;44.240;2023-07-13T04:53:23;7.90;;;3.67;;
75465;SDS011;64049;46.290;44.240;2023-07-13T04:55:49;6.70;;;3.60;;
75465;SDS011;64049;46.290;44.240;2023-07-13T04:58:15;7.53;;;3.75;;
75465;SDS011;64049;46.290;44.240;2023-07-13T05:00:41;6.03;;;3.50;;
75465;SDS011;64049;46.290;44.240;2023-07-13T05:03:07;7.32;;;3.80;;
75465;SDS011;64049;46.290;44.240;2023-07-13T05:05:33;9.63;;;3.75;;
75465;SDS011;64049;46.290;44.240;2023-07-13T05:07:59;6.80;;;3.38;;
75465;SDS011;64049;46.290;44.240;2023-07-13T05:10:25;7.30;;;2.75;;
75465;SDS011;64049;46.290;44.240;2023-07-13T05:12:51;9.23;;;3.10;;
75465;SDS011;64049;46.290;44.240;2023-07-13T05:15:17;7.45;;;3.75;;
75465;SDS011;64049;46.290;44.240;2023-07-13T05:17:47;4.28;;;1.92;;
75465;SDS011;64049;46.290;44.240;2023-07-13T05:20:13;8.43;;;3.42;;
75465;SDS011;64049;46.290;44.240;2023-07-13T05:22:39;8.70;;;3.38;;
75465;SDS011;64049;46.290;44.240;2023-07-13T05:25:06;6.35;;;3.22;;
75465;SDS011;64049;46.290;44.240;2023-07-13T05:27:33;6.30;;;3.38;;
75465;SDS011;64049;46.290;44.240;2023-07-13T05:30:00;6.80;;;3.22;;
75465;SDS011;64049;46.290;44.240;2023-07-13T05:32:27;6.57;;;2.83;;
75465;SDS011;64049;46.290;44.240;2023-07-13T05:34:53;7.72;;;3.08;;
75465;SDS011;64049;46.290;44.240;2023-07-13T05:37:19;9.30;;;4.03;;
75465;SDS011;64049;46.290;44.240;2023-07-13T05:39:46;4.85;;;2.88;;
75465;SDS011;64049;46.290;44.240;2023-07-13T05:42:11;6.18;;;3.67;;
75465;SDS011;64049;46.290;44.240;2023-07-13T05:44:37;6.90;;;3.00;;
75465;SDS011;64049;46.290;44.240;2023-07-13T05:47:03;7.82;;;3.67;;
75465;SDS011;64049;46.290;44.240;2023-07-13T05:49:29;8.80;;;3.88;;
75465;SDS011;64049;46.290;44.240;2023-07-13T05:51:56;4.78;;;2.38;;
75465;SDS011;64049;46.290;44.240;2023-07-13T05:54:22;5.75;;;2.95;;
75465;SDS011;64049;46.290;44.240;2023-07-13T05:56:48;8.75;;;3.90;;
75465;SDS011;64049;46.290;44.240;2023-07-13T05:59:13;7.13;;;3.55;;
75465;SDS011;64049;46.290;44.240;2023-07-13T06:01:39;5.78;;;2.78;;
75465;SDS011;64049;46.290;44.240;2023-07-13T06:04:06;8.55;;;3.90;;
75465;SDS011;64049;46.290;44.240;2023-07-13T06:06:32;10.48;;;3.83;;
75465;SDS011;64049;46.290;44.240;2023-07-13T06:08:58;9.32;;;3.83;;
75465;SDS011;64049;46.290;44.240;2023-07-13T06:11:25;7.90;;;3.88;;
75465;SDS011;64049;46.290;44.240;2023-07-13T06:13:53;8.55;;;3.80;;
75465;SDS011;64049;46.290;44.240;2023-07-13T06:16:19;7.55;;;3.70;;
75465;SDS011;64049;46.290;44.240;2023-07-13T06:18:45;6.85;;;4.00;;
75465;SDS011;64049;46.290;44.240;2023-07-13T06:21:12;7.15;;;4.00;;
75465;SDS011;64049;46.290;44.240;2023-07-13T06:23:44;12.63;;;3.88;;
75465;SDS011;64049;46.290;44.240;2023-07-13T06:26:13;8.95;;;2.90;;
75465;SDS011;64049;46.290;44.240;2023-07-13T06:28:45;8.48;;;3.25;;
75465;SDS011;64049;46.290;44.240;2023-07-13T06:31:12;8.38;;;3.08;;
75465;SDS011;64049;46.290;44.240;2023-07-13T06:33:39;7.20;;;3.05;;
75465;SDS011;64049;46.290;44.240;2023-07-13T06:36:06;15.88;;;5.13;;
75465;SDS011;64049;46.290;44.240;2023-07-13T06:38:35;5.80;;;2.60;;
75465;SDS011;64049;46.290;44.240;2023-07-13T06:41:01;8.05;;;2.97;;
75465;SDS011;64049;46.290;44.240;2023-07-13T06:43:27;6.68;;;3.03;;
75465;SDS011;64049;46.290;44.240;2023-07-13T06:48:21;7.93;;;3.85;;
75465;SDS011;64049;46.290;44.240;2023-07-13T06:50:50;8.98;;;2.80;;
75465;SDS011;64049;46.290;44.240;2023-07-13T06:53:19;5.70;;;2.78;;
75465;SDS011;64049;46.290;44.240;2023-07-13T06:55:45;7.93;;;3.78;;
75465;SDS011;64049;46.290;44.240;2023-07-13T06:58:11;5.53;;;2.38;;
75465;SDS011;64049;46.290;44.240;2023-07-13T07:00:38;5.20;;;2.47;;
75465;SDS011;64049;46.290;44.240;2023-07-13T07:03:05;5.63;;;2.60;;
75465;SDS011;64049;46.290;44.240;2023-07-13T07:05:31;8.80;;;3.80;;
75465;SDS011;64049;46.290;44.240;2023-07-13T07:07:58;6.10;;;2.33;;
75465;SDS011;64049;46.290;44.240;2023-07-13T07:10:24;7.63;;;3.65;;
75465;SDS011;64049;46.290;44.240;2023-07-13T07:12:50;5.10;;;2.60;;
75465;SDS011;64049;46.290;44.240;2023-07-13T07:15:18;8.95;;;2.80;;
75465;SDS011;64049;46.290;44.240;2023-07-13T07:17:44;6.25;;;2.90;;
75465;SDS011;64049;46.290;44.240;2023-07-13T07:20:10;8.98;;;3.55;;
75465;SDS011;64049;46.290;44.240;2023-07-13T07:22:37;6.47;;;3.08;;
75465;SDS011;64049;46.290;44.240;2023-07-13T07:25:03;6.35;;;2.40;;
75465;SDS011;64049;46.290;44.240;2023-07-13T07:27:30;5.80;;;2.30;;
75465;SDS011;64049;46.290;44.240;2023-07-13T07:29:56;6.90;;;3.33;;
75465;SDS011;64049;46.290;44.240;2023-07-13T07:32:23;21.55;;;3.50;;
75465;SDS011;64049;46.290;44.240;2023-07-13T07:34:49;5.20;;;2.00;;
75465;SDS011;64049;46.290;44.240;2023-07-13T07:37:15;6.50;;;2.25;;
75465;SDS011;64049;46.290;44.240;2023-07-13T07:39:49;6.85;;;2.60;;
75465;SDS011;64049;46.290;44.240;2023-07-13T07:42:20;7.47;;;2.05;;
75465;SDS011;64049;46.290;44.240;2023-07-13T07:44:47;7.10;;;2.92;;
75465;SDS011;64049;46.290;44.240;2023-07-13T07:47:13;4.45;;;2.10;;
75465;SDS011;64049;46.290;44.240;2023-07-13T07:49:41;7.75;;;2.63;;
75465;SDS011;64049;46.290;44.240;2023-07-13T07:52:08;11.10;;;2.40;;
75465;SDS011;64049;46.290;44.240;2023-07-13T07:54:37;5.22;;;2.40;;
75465;SDS011;64049;46.290;44.240;2023-07-13T07:57:07;7.20;;;2.20;;
75465;SDS011;64049;46.290;44.240;2023-07-13T07:59:33;10.50;;;2.80;;
75465;SDS011;64049;46.290;44.240;2023-07-13T08:01:59;6.57;;;2.22;;
75465;SDS011;64049;46.290;44.240;2023-07-13T08:04:28;7.10;;;2.60;;
75465;SDS011;64049;46.290;44.240;2023-07-13T08:06:57;6.88;;;2.25;;
75465;SDS011;64049;46.290;44.240;2023-07-13T08:09:24;5.30;;;2.25;;
75465;SDS011;64049;46.290;44.240;2023-07-13T08:11:50;3.15;;;1.25;;
75465;SDS011;64049;46.290;44.240;2023-07-13T08:14:17;4.57;;;1.90;;
75465;SDS011;64049;46.290;44.240;2023-07-13T08:16:47;4.90;;;1.70;;
75465;SDS011;64049;46.290;44.240;2023-07-13T08:19:13;4.93;;;1.98;;
75465;SDS011;64049;46.290;44.240;2023-07-13T08:21:39;5.38;;;2.13;;
75465;SDS011;64049;46.290;44.240;2023-07-13T08:24:07;4.32;;;1.83;;
75465;SDS011;64049;46.290;44.240;2023-07-13T08:26:34;4.15;;;1.95;;
75465;SDS011;64049;46.290;44.240;2023-07-13T08:29:00;5.40;;;2.15;;
75465;SDS011;64049;46.290;44.240;2023-07-13T08:31:26;7.43;;;1.75;;
75465;SDS011;64049;46.290;44.240;2023-07-13T08:33:52;4.18;;;1.65;;
75465;SDS011;64049;46.290;44.240;2023-07-13T08:36:18;8.20;;;2.00;;
75465;SDS011;64049;46.290;44.240;2023-07-13T08:38:44;5.38;;;1.48;;
75465;SDS011;64049;46.290;44.240;2023-07-13T08:41:16;4.30;;;1.77;;
75465;SDS011;64049;46.290;44.240;2023-07-13T08:43:45;4.43;;;1.75;;
75465;SDS011;64049;46.290;44.240;2023-07-13T08:48:59;3.90;;;1.58;;
75465;SDS011;64049;46.290;44.240;2023-07-13T08:54:51;4.85;;;1.95;;
75465;SDS011;64049;46.290;44.240;2023-07-13T08:57:21;4.60;;;2.03;;
75465;SDS011;64049;46.290;44.240;2023-07-13T08:59:56;6.68;;;2.17;;
75465;SDS011;64049;46.290;44.240;2023-07-13T09:02:28;9.82;;;1.83;;
75465;SDS011;64049;46.290;44.240;2023-07-13T09:05:17;3.90;;;1.70;;
75465;SDS011;64049;46.290;44.240;2023-07-13T09:07:55;5.15;;;1.63;;
75465;SDS011;64049;46.290;44.240;2023-07-13T09:10:46;9.02;;;2.08;;
75465;SDS011;64049;46.290;44.240;2023-07-13T09:15:44;6.97;;;1.63;;
75465;SDS011;64049;46.290;44.240;2023-07-13T09:18:14;4.53;;;1.60;;
75465;SDS011;64049;46.290;44.240;2023-07-13T09:20:54;4.55;;;1.65;;
75465;SDS011;64049;46.290;44.240;2023-07-13T09:23:26;2.92;;;1.45;;
75465;SDS011;64049;46.290;44.240;2023-07-13T09:25:58;4.25;;;1.77;;
75465;SDS011;64049;46.290;44.240;2023-07-13T09:28:35;3.63;;;1.42;;
75465;SDS011;64049;46.290;44.240;2023-07-13T09:31:06;4.47;;;1.88;;
75465;SDS011;64049;46.290;44.240;2023-07-13T09:33:37;3.78;;;1.77;;
75465;SDS011;64049;46.290;44.240;2023-07-13T09:36:20;3.72;;;1.77;;
75465;SDS011;64049;46.290;44.240;2023-07-13T09:39:37;5.93;;;2.33;;
75465;SDS011;64049;46.290;44.240;2023-07-13T09:41:51;5.03;;;1.67;;
75465;SDS011;64049;46.290;44.240;2023-07-13T09:47:27;4.05;;;1.65;;
75465;SDS011;64049;46.290;44.240;2023-07-13T09:50:01;3.35;;;1.50;;
75465;SDS011;64049;46.290;44.240;2023-07-13T09:52:51;6.20;;;2.22;;
75465;SDS011;64049;46.290;44.240;2023-07-13T09:55:23;4.70;;;1.65;;
75465;SDS011;64049;46.290;44.240;2023-07-13T09:57:49;4.85;;;2.03;;
75465;SDS011;64049;46.290;44.240;2023-07-13T10:00:25;3.28;;;1.30;;
75465;SDS011;64049;46.290;44.240;2023-07-13T10:03:00;5.75;;;1.58;;
75465;SDS011;64049;46.290;44.240;2023-07-13T10:05:36;4.60;;;1.65;;
75465;SDS011;64049;46.290;44.240;2023-07-13T10:08:04;6.75;;;1.88;;
75465;SDS011;64049;46.290;44.240;2023-07-13T10:10:32;4.72;;;1.80;;
75465;SDS011;64049;46.290;44.240;2023-07-13T10:13:01;6.55;;;2.15;;
75465;SDS011;64049;46.290;44.240;2023-07-13T10:15:29;3.97;;;1.85;;
75465;SDS011;64049;46.290;44.240;2023-07-13T10:17:55;5.10;;;2.22;;
75465;SDS011;64049;46.290;44.240;2023-07-13T10:20:23;3.80;;;1.55;;
75465;SDS011;64049;46.290;44.240;2023-07-13T10:23:00;6.55;;;2.22;;
75465;SDS011;64049;46.290;44.240;2023-07-13T10:25:33;5.65;;;1.83;;
75465;SDS011;64049;46.290;44.240;2023-07-13T10:28:25;4.45;;;1.73;;
75465;SDS011;64049;46.290;44.240;2023-07-13T10:30:58;5.30;;;1.92;;
75465;SDS011;64049;46.290;44.240;2023-07-13T10:33:26;6.00;;;1.90;;
75465;SDS011;64049;46.290;44.240;2023-07-13T10:36:03;7.05;;;2.33;;
75465;SDS011;64049;46.290;44.240;2023-07-13T10:38:40;2.92;;;1.30;;
75465;SDS011;64049;46.290;44.240;2023-07-13T10:41:09;3.70;;;1.48;;
75465;SDS011;64049;46.290;44.240;2023-07-13T10:46:13;3.67;;;1.67;;
75465;SDS011;64049;46.290;44.240;2023-07-13T10:48:41;8.20;;;1.67;;
75465;SDS011;64049;46.290;44.240;2023-07-13T10:51:10;10.55;;;2.20;;
75465;SDS011;64049;46.290;44.240;2023-07-13T10:53:39;3.35;;;1.42;;
75465;SDS011;64049;46.290;44.240;2023-07-13T10:58:44;4.68;;;1.70;;
75465;SDS011;64049;46.290;44.240;2023-07-13T11:01:13;10.77;;;4.10;;
75465;SDS011;64049;46.290;44.240;2023-07-13T11:06:11;6.28;;;1.80;;
75465;SDS011;64049;46.290;44.240;2023-07-13T11:18:53;2.50;;;0.95;;
75465;SDS011;64049;46.290;44.240;2023-07-13T11:22:10;3.08;;;1.08;;
75465;SDS011;64049;46.290;44.240;2023-07-13T11:24:48;3.60;;;1.38;;
75465;SDS011;64049;46.290;44.240;2023-07-13T11:32:49;3.30;;;1.30;;
75465;SDS011;64049;46.290;44.240;2023-07-13T11:35:38;4.10;;;1.13;;
75465;SDS011;64049;46.290;44.240;2023-07-13T11:38:23;4.93;;;1.70;;
75465;SDS011;64049;46.290;44.240;2023-07-13T11:40:58;5.82;;;1.50;;
75465;SDS011;64049;46.290;44.240;2023-07-13T11:43:29;3.58;;;1.25;;
75465;SDS011;64049;46.290;44.240;2023-07-13T11:45:55;4.38;;;1.25;;
75465;SDS011;64049;46.290;44.240;2023-07-13T11:48:22;5.10;;;1.67;;
75465;SDS011;64049;46.290;44.240;2023-07-13T11:51:04;2.63;;;1.00;;
75465;SDS011;64049;46.290;44.240;2023-07-13T11:53:38;3.20;;;1.33;;
75465;SDS011;64049;46.290;44.240;2023-07-13T11:56:06;3.67;;;0.98;;
75465;SDS011;64049;46.290;44.240;2023-07-13T11:58:33;5.45;;;1.27;;
75465;SDS011;64049;46.290;44.240;2023-07-13T12:01:00;5.43;;;1.27;;
75465;SDS011;64049;46.290;44.240;2023-07-13T12:03:30;6.65;;;1.48;;
75465;SDS011;64049;46.290;44.240;2023-07-13T12:06:00;4.60;;;1.33;;
75465;SDS011;64049;46.290;44.240;2023-07-13T12:08:40;6.65;;;1.60;;
75465;SDS011;64049;46.290;44.240;2023-07-13T12:11:11;3.22;;;1.30;;
75465;SDS011;64049;46.290;44.240;2023-07-13T12:13:43;4.10;;;1.58;;
75465;SDS011;64049;46.290;44.240;2023-07-13T12:16:43;3.33;;;1.30;;
75465;SDS011;64049;46.290;44.240;2023-07-13T12:19:02;6.45;;;2.00;;
75465;SDS011;64049;46.290;44.240;2023-07-13T12:21:32;6.15;;;1.55;;
75465;SDS011;64049;46.290;44.240;2023-07-13T12:24:03;6.50;;;1.30;;
75465;SDS011;64049;46.290;44.240;2023-07-13T12:26:30;4.05;;;1.30;;
75465;SDS011;64049;46.290;44.240;2023-07-13T12:31:45;4.32;;;1.25;;
75465;SDS011;64049;46.290;44.240;2023-07-13T12:34:14;3.03;;;1.13;;
75465;SDS011;64049;46.290;44.240;2023-07-13T12:36:49;3.47;;;1.58;;
75465;SDS011;64049;46.290;44.240;2023-07-13T12:39:16;4.30;;;1.55;;
75465;SDS011;64049;46.290;44.240;2023-07-13T12:41:47;4.25;;;1.38;;
75465;SDS011;64049;46.290;44.240;2023-07-13T12:44:15;7.38;;;1.48;;
75465;SDS011;64049;46.290;44.240;2023-07-13T12:46:56;6.75;;;1.23;;
75465;SDS011;64049;46.290;44.240;2023-07-13T12:49:33;3.55;;;1.15;;
75465;SDS011;64049;46.290;44.240;2023-07-13T12:52:02;2.58;;;0.93;;
75465;SDS011;64049;46.290;44.240;2023-07-13T12:54:30;3.65;;;1.13;;
75465;SDS011;64049;46.290;44.240;2023-07-13T12:56:57;4.03;;;1.15;;
75465;SDS011;64049;46.290;44.240;2023-07-13T12:59:29;3.50;;;1.10;;
75465;SDS011;64049;46.290;44.240;2023-07-13T13:06:59;3.58;;;1.30;;
75465;SDS011;64049;46.290;44.240;2023-07-13T13:09:28;2.47;;;1.10;;
75465;SDS011;64049;46.290;44.240;2023-07-13T13:11:54;2.40;;;0.90;;
75465;SDS011;64049;46.290;44.240;2023-07-13T13:14:20;3.15;;;1.02;;
75465;SDS011;64049;46.290;44.240;2023-07-13T13:16:47;2.85;;;1.20;;
75465;SDS011;64049;46.290;44.240;2023-07-13T13:21:44;2.95;;;0.98;;
75465;SDS011;64049;46.290;44.240;2023-07-13T13:24:12;4.70;;;1.50;;
75465;SDS011;64049;46.290;44.240;2023-07-13T13:26:39;3.88;;;1.50;;
75465;SDS011;64049;46.290;44.240;2023-07-13T13:31:44;2.33;;;0.85;;
75465;SDS011;64049;46.290;44.240;2023-07-13T13:34:11;2.83;;;1.15;;
75465;SDS011;64049;46.290;44.240;2023-07-13T13:36:39;2.05;;;0.70;;
75465;SDS011;64049;46.290;44.240;2023-07-13T13:39:14;2.67;;;1.00;;
75465;SDS011;64049;46.290;44.240;2023-07-13T13:41:44;2.67;;;1.00;;
75465;SDS011;64049;46.290;44.240;2023-07-13T13:44:10;2.78;;;0.80;;
75465;SDS011;64049;46.290;44.240;2023-07-13T13:46:38;1.88;;;0.80;;
75465;SDS011;64049;46.290;44.240;2023-07-13T13:49:07;3.45;;;0.90;;
75465;SDS011;64049;46.290;44.240;2023-07-13T13:51:39;4.18;;;0.80;;
75465;SDS011;64049;46.290;44.240;2023-07-13T13:54:05;1.27;;;0.65;;
75465;SDS011;64049;46.290;44.240;2023-07-13T13:56:37;1.90;;;0.82;;
75465;SDS011;64049;46.290;44.240;2023-07-13T14:02:50;3.38;;;0.80;;
75465;SDS011;64049;46.290;44.240;2023-07-13T14:05:21;3.35;;;1.00;;
75465;SDS011;64049;46.290;44.240;2023-07-13T14:07:48;3.00;;;1.00;;
75465;SDS011;64049;46.290;44.240;2023-07-13T14:10:17;1.67;;;0.70;;
75465;SDS011;64049;46.290;44.240;2023-07-13T14:12:44;1.52;;;0.73;;
75465;SDS011;64049;46.290;44.240;2023-07-13T14:15:30;2.83;;;0.82;;
75465;SDS011;64049;46.290;44.240;2023-07-13T14:17:56;2.78;;;0.90;;
75465;SDS011;64049;46.290;44.240;2023-07-13T14:20:24;4.03;;;1.13;;
75465;SDS011;64049;46.290;44.240;2023-07-13T14:22:53;3.13;;;0.90;;
75465;SDS011;64049;46.290;44.240;2023-07-13T14:25:20;3.45;;;1.25;;
75465;SDS011;64049;46.290;44.240;2023-07-13T14:27:51;7.18;;;1.13;;
75465;SDS011;64049;46.290;44.240;2023-07-13T14:30:30;2.78;;;0.93;;
75465;SDS011;64049;46.290;44.240;2023-07-13T14:32:56;2.72;;;0.95;;
75465;SDS011;64049;46.290;44.240;2023-07-13T14:35:25;2.45;;;0.80;;
75465;SDS011;64049;46.290;44.240;2023-07-13T14:37:51;2.22;;;0.68;;
75465;SDS011;64049;46.290;44.240;2023-07-13T14:40:19;2.22;;;0.82;;
75465;SDS011;64049;46.290;44.240;2023-07-13T14:42:57;2.03;;;0.75;;
75465;SDS011;64049;46.290;44.240;2023-07-13T14:45:24;3.22;;;1.15;;
75465;SDS011;64049;46.290;44.240;2023-07-13T14:47:53;6.43;;;0.80;;
75465;SDS011;64049;46.290;44.240;2023-07-13T14:50:32;1.88;;;0.75;;
75465;SDS011;64049;46.290;44.240;2023-07-13T14:53:00;2.67;;;0.70;;
75465;SDS011;64049;46.290;44.240;2023-07-13T14:55:31;3.53;;;1.23;;
75465;SDS011;64049;46.290;44.240;2023-07-13T14:58:03;1.58;;;0.50;;
75465;SDS011;64049;46.290;44.240;2023-07-13T15:00:29;3.25;;;1.00;;
75465;SDS011;64049;46.290;44.240;2023-07-13T15:02:57;3.58;;;1.10;;
75465;SDS011;64049;46.290;44.240;2023-07-13T15:05:25;3.50;;;0.75;;
75465;SDS011;64049;46.290;44.240;2023-07-13T15:07:59;2.40;;;0.80;;
75465;SDS011;64049;46.290;44.240;2023-07-13T15:10:28;3.92;;;1.05;;
75465;SDS011;64049;46.290;44.240;2023-07-13T15:13:15;1.77;;;0.50;;
75465;SDS011;64049;46.290;44.240;2023-07-13T15:15:49;1.85;;;0.60;;
75465;SDS011;64049;46.290;44.240;2023-07-13T15:18:18;2.35;;;0.80;;
75465;SDS011;64049;46.290;44.240;2023-07-13T15:20:46;2.83;;;1.27;;
75465;SDS011;64049;46.290;44.240;2023-07-13T15:23:15;4.15;;;1.50;;
75465;SDS011;64049;46.290;44.240;2023-07-13T15:25:43;6.40;;;2.53;;
75465;SDS011;64049;46.290;44.240;2023-07-13T15:28:11;6.32;;;2.53;;
75465;SDS011;64049;46.290;44.240;2023-07-13T15:30:45;2.88;;;0.60;;
75465;SDS011;64049;46.290;44.240;2023-07-13T15:33:31;6.80;;;1.20;;
75465;SDS011;64049;46.290;44.240;2023-07-13T15:35:59;2.30;;;0.60;;
75465;SDS011;64049;46.290;44.240;2023-07-13T15:38:30;2.55;;;0.85;;
75465;SDS011;64049;46.290;44.240;2023-07-13T15:40:57;2.85;;;0.80;;
75465;SDS011;64049;46.290;44.240;2023-07-13T15:43:23;2.75;;;0.70;;
75465;SDS011;64049;46.290;44.240;2023-07-13T15:45:51;3.97;;;1.27;;